sensor_id;sensor_type;location;lat;lon;timestamp;P1;durP1;ratioP1;P2;durP2;ratioP2
43994;SDS011;51687;52.160;5.298;2023-09-30T00:01:30;16.40;;;7.03;;
43994;SDS011;51687;52.160;5.298;2023-09-30T00:03:57;16.90;;;7.88;;
43994;SDS011;51687;52.160;5.298;2023-09-30T00:06:25;14.10;;;7.33;;
43994;SDS011;51687;52.160;5.298;2023-09-30T00:08:52;12.63;;;7.68;;
43994;SDS011;51687;52.160;5.298;2023-09-30T00:11:19;10.45;;;6.70;;
43994;SDS011;51687;52.160;5.298;2023-09-30T00:13:47;14.48;;;7.03;;
43994;SDS011;51687;52.160;5.298;2023-09-30T00:16:15;12.50;;;6.80;;
43994;SDS011;51687;52.160;5.298;2023-09-30T00:18:44;14.57;;;7.38;;
43994;SDS011;51687;52.160;5.298;2023-09-30T00:21:11;12.00;;;7.22;;
43994;SDS011;51687;52.160;5.298;2023-09-30T00:23:38;13.23;;;7.82;;
43994;SDS011;51687;52.160;5.298;2023-09-30T00:26:06;20.60;;;8.25;;
43994;SDS011;51687;52.160;5.298;2023-09-30T00:28:33;12.98;;;8.77;;
43994;SDS011;51687;52.160;5.298;2023-09-30T00:31:00;13.17;;;8.23;;
43994;SDS011;51687;52.160;5.298;2023-09-30T00:33:28;16.98;;;8.43;;
43994;SDS011;51687;52.160;5.298;2023-09-30T00:35:55;18.05;;;8.77;;
43994;SDS011;51687;52.160;5.298;2023-09-30T00:38:22;15.20;;;7.97;;
43994;SDS011;51687;52.160;5.298;2023-09-30T00:40:51;15.77;;;9.07;;
43994;SDS011;51687;52.160;5.298;2023-09-30T00:43:20;11.15;;;7.20;;
43994;SDS011;51687;52.160;5.298;2023-09-30T00:45:48;14.57;;;8.10;;
43994;SDS011;51687;52.160;5.298;2023-09-30T00:48:15;11.93;;;8.47;;
43994;SDS011;51687;52.160;5.298;2023-09-30T00:50:43;17.80;;;9.77;;
43994;SDS011;51687;52.160;5.298;2023-09-30T00:53:10;12.30;;;8.88;;
43994;SDS011;51687;52.160;5.298;2023-09-30T00:55:38;17.58;;;9.48;;
43994;SDS011;51687;52.160;5.298;2023-09-30T00:58:05;16.55;;;9.57;;
43994;SDS011;51687;52.160;5.298;2023-09-30T01:00:33;15.60;;;9.07;;
43994;SDS011;51687;52.160;5.298;2023-09-30T01:03:00;16.85;;;9.00;;
43994;SDS011;51687;52.160;5.298;2023-09-30T01:05:30;15.73;;;8.38;;
43994;SDS011;51687;52.160;5.298;2023-09-30T01:07:57;13.40;;;9.70;;
43994;SDS011;51687;52.160;5.298;2023-09-30T01:10:25;14.05;;;8.25;;
43994;SDS011;51687;52.160;5.298;2023-09-30T01:12:53;15.05;;;8.32;;
43994;SDS011;51687;52.160;5.298;2023-09-30T01:15:21;13.57;;;8.50;;
43994;SDS011;51687;52.160;5.298;2023-09-30T01:17:48;14.63;;;9.00;;
43994;SDS011;51687;52.160;5.298;2023-09-30T01:20:16;16.25;;;8.65;;
43994;SDS011;51687;52.160;5.298;2023-09-30T01:22:43;13.40;;;8.95;;
43994;SDS011;51687;52.160;5.298;2023-09-30T01:25:11;15.90;;;9.55;;
43994;SDS011;51687;52.160;5.298;2023-09-30T01:27:38;19.20;;;10.23;;
43994;SDS011;51687;52.160;5.298;2023-09-30T01:30:06;14.07;;;10.50;;
43994;SDS011;51687;52.160;5.298;2023-09-30T01:32:37;16.98;;;10.50;;
43994;SDS011;51687;52.160;5.298;2023-09-30T01:35:04;12.60;;;10.15;;
43994;SDS011;51687;52.160;5.298;2023-09-30T01:37:32;18.35;;;10.50;;
43994;SDS011;51687;52.160;5.298;2023-09-30T01:39:59;16.10;;;11.93;;
43994;SDS011;51687;52.160;5.298;2023-09-30T01:42:26;18.00;;;10.93;;
43994;SDS011;51687;52.160;5.298;2023-09-30T01:44:54;18.30;;;10.88;;
43994;SDS011;51687;52.160;5.298;2023-09-30T01:47:22;15.65;;;10.55;;
43994;SDS011;51687;52.160;5.298;2023-09-30T01:49:50;16.65;;;11.35;;
43994;SDS011;51687;52.160;5.298;2023-09-30T01:52:17;16.70;;;11.95;;
43994;SDS011;51687;52.160;5.298;2023-09-30T01:54:44;18.98;;;11.55;;
43994;SDS011;51687;52.160;5.298;2023-09-30T01:57:11;16.35;;;10.68;;
43994;SDS011;51687;52.160;5.298;2023-09-30T01:59:39;13.45;;;10.75;;
43994;SDS011;51687;52.160;5.298;2023-09-30T02:02:06;19.23;;;12.15;;
43994;SDS011;51687;52.160;5.298;2023-09-30T02:04:34;14.30;;;10.85;;
43994;SDS011;51687;52.160;5.298;2023-09-30T02:07:01;13.25;;;10.60;;
43994;SDS011;51687;52.160;5.298;2023-09-30T02:09:29;13.20;;;10.63;;
43994;SDS011;51687;52.160;5.298;2023-09-30T02:11:56;15.15;;;10.68;;
43994;SDS011;51687;52.160;5.298;2023-09-30T02:14:23;13.45;;;11.20;;
43994;SDS011;51687;52.160;5.298;2023-09-30T02:16:51;12.63;;;10.98;;
43994;SDS011;51687;52.160;5.298;2023-09-30T02:19:18;15.80;;;11.35;;
43994;SDS011;51687;52.160;5.298;2023-09-30T02:21:46;14.20;;;10.75;;
43994;SDS011;51687;52.160;5.298;2023-09-30T02:24:13;14.63;;;11.05;;
43994;SDS011;51687;52.160;5.298;2023-09-30T02:26:41;13.63;;;11.03;;
43994;SDS011;51687;52.160;5.298;2023-09-30T02:29:10;17.27;;;12.55;;
43994;SDS011;51687;52.160;5.298;2023-09-30T02:31:37;21.40;;;12.48;;
43994;SDS011;51687;52.160;5.298;2023-09-30T02:34:05;16.95;;;13.88;;
43994;SDS011;51687;52.160;5.298;2023-09-30T02:36:33;18.58;;;13.38;;
43994;SDS011;51687;52.160;5.298;2023-09-30T02:39:05;20.73;;;13.50;;
43994;SDS011;51687;52.160;5.298;2023-09-30T02:41:35;16.92;;;13.30;;
43994;SDS011;51687;52.160;5.298;2023-09-30T02:46:30;18.25;;;13.05;;
43994;SDS011;51687;52.160;5.298;2023-09-30T02:48:58;17.23;;;13.88;;
43994;SDS011;51687;52.160;5.298;2023-09-30T02:51:25;23.15;;;13.82;;
43994;SDS011;51687;52.160;5.298;2023-09-30T02:53:52;18.80;;;14.63;;
43994;SDS011;51687;52.160;5.298;2023-09-30T02:56:19;23.35;;;13.90;;
43994;SDS011;51687;52.160;5.298;2023-09-30T02:58:46;21.63;;;15.02;;
43994;SDS011;51687;52.160;5.298;2023-09-30T03:01:14;22.88;;;15.20;;
43994;SDS011;51687;52.160;5.298;2023-09-30T03:03:43;22.55;;;13.48;;
43994;SDS011;51687;52.160;5.298;2023-09-30T03:06:11;16.30;;;14.63;;
43994;SDS011;51687;52.160;5.298;2023-09-30T03:08:38;20.98;;;15.20;;
43994;SDS011;51687;52.160;5.298;2023-09-30T03:11:05;21.80;;;15.15;;
43994;SDS011;51687;52.160;5.298;2023-09-30T03:13:33;21.10;;;13.80;;
43994;SDS011;51687;52.160;5.298;2023-09-30T03:16:00;23.40;;;15.30;;
43994;SDS011;51687;52.160;5.298;2023-09-30T03:18:27;16.80;;;14.70;;
43994;SDS011;51687;52.160;5.298;2023-09-30T03:21:01;17.33;;;14.90;;
43994;SDS011;51687;52.160;5.298;2023-09-30T03:23:28;20.13;;;14.77;;
43994;SDS011;51687;52.160;5.298;2023-09-30T03:28:24;18.88;;;16.25;;
43994;SDS011;51687;52.160;5.298;2023-09-30T03:30:51;18.02;;;16.02;;
43994;SDS011;51687;52.160;5.298;2023-09-30T03:33:19;18.77;;;16.25;;
43994;SDS011;51687;52.160;5.298;2023-09-30T03:35:46;17.85;;;15.40;;
43994;SDS011;51687;52.160;5.298;2023-09-30T03:38:13;29.83;;;18.15;;
43994;SDS011;51687;52.160;5.298;2023-09-30T03:40:41;24.08;;;16.55;;
43994;SDS011;51687;52.160;5.298;2023-09-30T03:43:15;29.58;;;16.95;;
43994;SDS011;51687;52.160;5.298;2023-09-30T03:45:43;17.75;;;15.88;;
43994;SDS011;51687;52.160;5.298;2023-09-30T03:48:11;27.90;;;15.77;;
43994;SDS011;51687;52.160;5.298;2023-09-30T03:50:38;18.85;;;15.85;;
43994;SDS011;51687;52.160;5.298;2023-09-30T03:53:05;18.20;;;15.60;;
43994;SDS011;51687;52.160;5.298;2023-09-30T03:55:36;25.65;;;17.45;;
43994;SDS011;51687;52.160;5.298;2023-09-30T03:58:03;19.75;;;16.25;;
43994;SDS011;51687;52.160;5.298;2023-09-30T04:00:31;21.13;;;17.05;;
43994;SDS011;51687;52.160;5.298;2023-09-30T04:02:58;24.98;;;17.10;;
43994;SDS011;51687;52.160;5.298;2023-09-30T04:05:25;24.52;;;18.27;;
43994;SDS011;51687;52.160;5.298;2023-09-30T04:07:56;24.92;;;18.02;;
43994;SDS011;51687;52.160;5.298;2023-09-30T04:10:23;23.25;;;17.80;;
43994;SDS011;51687;52.160;5.298;2023-09-30T04:12:51;23.17;;;18.23;;
43994;SDS011;51687;52.160;5.298;2023-09-30T04:15:19;27.20;;;18.58;;
43994;SDS011;51687;52.160;5.298;2023-09-30T04:17:47;20.92;;;17.75;;
43994;SDS011;51687;52.160;5.298;2023-09-30T04:20:14;27.45;;;17.92;;
43994;SDS011;51687;52.160;5.298;2023-09-30T04:22:53;19.77;;;17.27;;
43994;SDS011;51687;52.160;5.298;2023-09-30T04:25:24;24.42;;;17.80;;
43994;SDS011;51687;52.160;5.298;2023-09-30T04:27:51;21.88;;;18.50;;
43994;SDS011;51687;52.160;5.298;2023-09-30T04:30:19;20.52;;;18.48;;
43994;SDS011;51687;52.160;5.298;2023-09-30T04:32:48;25.00;;;20.00;;
43994;SDS011;51687;52.160;5.298;2023-09-30T04:35:16;23.08;;;20.40;;
43994;SDS011;51687;52.160;5.298;2023-09-30T04:37:44;24.57;;;19.70;;
43994;SDS011;51687;52.160;5.298;2023-09-30T04:40:11;25.88;;;21.42;;
43994;SDS011;51687;52.160;5.298;2023-09-30T04:42:44;23.33;;;19.65;;
43994;SDS011;51687;52.160;5.298;2023-09-30T04:45:13;24.13;;;19.58;;
43994;SDS011;51687;52.160;5.298;2023-09-30T04:47:46;24.10;;;19.58;;
43994;SDS011;51687;52.160;5.298;2023-09-30T04:50:16;26.45;;;20.67;;
43994;SDS011;51687;52.160;5.298;2023-09-30T04:55:12;21.70;;;19.50;;
43994;SDS011;51687;52.160;5.298;2023-09-30T04:57:42;28.63;;;21.33;;
43994;SDS011;51687;52.160;5.298;2023-09-30T05:00:14;34.75;;;22.33;;
43994;SDS011;51687;52.160;5.298;2023-09-30T05:02:44;39.65;;;22.60;;
43994;SDS011;51687;52.160;5.298;2023-09-30T05:05:12;28.40;;;21.17;;
43994;SDS011;51687;52.160;5.298;2023-09-30T05:07:39;29.27;;;21.80;;
43994;SDS011;51687;52.160;5.298;2023-09-30T05:10:07;30.42;;;20.90;;
43994;SDS011;51687;52.160;5.298;2023-09-30T05:12:40;31.38;;;21.85;;
43994;SDS011;51687;52.160;5.298;2023-09-30T05:15:13;31.25;;;22.08;;
43994;SDS011;51687;52.160;5.298;2023-09-30T05:17:42;26.30;;;22.42;;
43994;SDS011;51687;52.160;5.298;2023-09-30T05:20:13;32.42;;;22.52;;
43994;SDS011;51687;52.160;5.298;2023-09-30T05:22:43;31.73;;;22.27;;
43994;SDS011;51687;52.160;5.298;2023-09-30T05:27:42;33.25;;;22.23;;
43994;SDS011;51687;52.160;5.298;2023-09-30T05:30:10;34.28;;;21.05;;
43994;SDS011;51687;52.160;5.298;2023-09-30T05:32:37;34.08;;;22.55;;
43994;SDS011;51687;52.160;5.298;2023-09-30T05:35:05;25.45;;;21.58;;
43994;SDS011;51687;52.160;5.298;2023-09-30T05:37:40;24.17;;;21.80;;
43994;SDS011;51687;52.160;5.298;2023-09-30T05:40:07;26.00;;;21.30;;
43994;SDS011;51687;52.160;5.298;2023-09-30T05:43:04;23.95;;;19.60;;
43994;SDS011;51687;52.160;5.298;2023-09-30T05:45:32;26.55;;;18.05;;
43994;SDS011;51687;52.160;5.298;2023-09-30T05:48:02;18.65;;;16.80;;
43994;SDS011;51687;52.160;5.298;2023-09-30T05:50:32;19.55;;;17.50;;
43994;SDS011;51687;52.160;5.298;2023-09-30T05:53:01;19.20;;;17.35;;
43994;SDS011;51687;52.160;5.298;2023-09-30T05:55:28;17.73;;;16.23;;
43994;SDS011;51687;52.160;5.298;2023-09-30T05:57:55;24.25;;;17.00;;
43994;SDS011;51687;52.160;5.298;2023-09-30T06:00:22;20.00;;;17.10;;
43994;SDS011;51687;52.160;5.298;2023-09-30T06:02:58;18.52;;;15.45;;
43994;SDS011;51687;52.160;5.298;2023-09-30T06:05:26;20.50;;;16.90;;
43994;SDS011;51687;52.160;5.298;2023-09-30T06:07:56;19.63;;;16.17;;
43994;SDS011;51687;52.160;5.298;2023-09-30T06:10:23;18.80;;;16.90;;
43994;SDS011;51687;52.160;5.298;2023-09-30T06:12:52;18.05;;;16.38;;
43994;SDS011;51687;52.160;5.298;2023-09-30T06:15:26;17.30;;;15.52;;
43994;SDS011;51687;52.160;5.298;2023-09-30T06:17:54;18.20;;;16.60;;
43994;SDS011;51687;52.160;5.298;2023-09-30T06:20:21;17.38;;;15.43;;
43994;SDS011;51687;52.160;5.298;2023-09-30T06:22:52;19.70;;;16.17;;
43994;SDS011;51687;52.160;5.298;2023-09-30T06:25:20;18.70;;;15.30;;
43994;SDS011;51687;52.160;5.298;2023-09-30T06:27:51;16.95;;;15.25;;
43994;SDS011;51687;52.160;5.298;2023-09-30T06:30:18;16.90;;;14.70;;
43994;SDS011;51687;52.160;5.298;2023-09-30T06:32:50;16.45;;;15.00;;
43994;SDS011;51687;52.160;5.298;2023-09-30T06:35:17;16.67;;;14.98;;
43994;SDS011;51687;52.160;5.298;2023-09-30T06:37:49;20.13;;;14.80;;
43994;SDS011;51687;52.160;5.298;2023-09-30T06:40:16;18.77;;;14.88;;
43994;SDS011;51687;52.160;5.298;2023-09-30T06:42:43;16.92;;;15.23;;
43994;SDS011;51687;52.160;5.298;2023-09-30T06:45:11;16.20;;;14.70;;
43994;SDS011;51687;52.160;5.298;2023-09-30T06:47:39;17.25;;;15.68;;
43994;SDS011;51687;52.160;5.298;2023-09-30T06:52:35;18.27;;;16.17;;
43994;SDS011;51687;52.160;5.298;2023-09-30T06:55:05;19.90;;;17.73;;
43994;SDS011;51687;52.160;5.298;2023-09-30T06:57:33;25.23;;;17.23;;
43994;SDS011;51687;52.160;5.298;2023-09-30T07:00:10;19.95;;;18.10;;
43994;SDS011;51687;52.160;5.298;2023-09-30T07:02:39;18.52;;;16.95;;
43994;SDS011;51687;52.160;5.298;2023-09-30T07:05:08;27.00;;;18.33;;
43994;SDS011;51687;52.160;5.298;2023-09-30T07:07:35;21.20;;;18.90;;
43994;SDS011;51687;52.160;5.298;2023-09-30T07:10:06;21.88;;;19.65;;
43994;SDS011;51687;52.160;5.298;2023-09-30T07:12:33;24.65;;;19.35;;
43994;SDS011;51687;52.160;5.298;2023-09-30T07:15:03;26.50;;;19.85;;
43994;SDS011;51687;52.160;5.298;2023-09-30T07:17:31;22.90;;;18.35;;
43994;SDS011;51687;52.160;5.298;2023-09-30T07:19:59;21.70;;;18.48;;
43994;SDS011;51687;52.160;5.298;2023-09-30T07:22:26;22.25;;;18.90;;
43994;SDS011;51687;52.160;5.298;2023-09-30T07:25:11;20.73;;;18.27;;
43994;SDS011;51687;52.160;5.298;2023-09-30T07:27:41;21.70;;;19.55;;
43994;SDS011;51687;52.160;5.298;2023-09-30T07:30:09;21.08;;;18.52;;
43994;SDS011;51687;52.160;5.298;2023-09-30T07:32:38;23.80;;;19.30;;
43994;SDS011;51687;52.160;5.298;2023-09-30T07:35:05;23.77;;;20.20;;
43994;SDS011;51687;52.160;5.298;2023-09-30T07:37:34;24.95;;;21.60;;
43994;SDS011;51687;52.160;5.298;2023-09-30T07:40:01;22.63;;;20.52;;
43994;SDS011;51687;52.160;5.298;2023-09-30T07:42:29;29.98;;;21.40;;
43994;SDS011;51687;52.160;5.298;2023-09-30T07:44:56;23.65;;;20.77;;
43994;SDS011;51687;52.160;5.298;2023-09-30T07:47:23;27.83;;;21.63;;
43994;SDS011;51687;52.160;5.298;2023-09-30T07:49:50;25.55;;;21.40;;
43994;SDS011;51687;52.160;5.298;2023-09-30T07:52:18;28.75;;;21.70;;
43994;SDS011;51687;52.160;5.298;2023-09-30T07:54:45;24.65;;;21.77;;
43994;SDS011;51687;52.160;5.298;2023-09-30T07:57:12;24.25;;;20.92;;
43994;SDS011;51687;52.160;5.298;2023-09-30T07:59:40;30.77;;;20.73;;
43994;SDS011;51687;52.160;5.298;2023-09-30T08:02:07;25.23;;;21.02;;
43994;SDS011;51687;52.160;5.298;2023-09-30T08:04:34;23.30;;;20.80;;
43994;SDS011;51687;52.160;5.298;2023-09-30T08:07:03;25.00;;;20.10;;
43994;SDS011;51687;52.160;5.298;2023-09-30T08:09:30;26.58;;;20.92;;
43994;SDS011;51687;52.160;5.298;2023-09-30T08:11:57;24.30;;;20.10;;
43994;SDS011;51687;52.160;5.298;2023-09-30T08:14:24;24.33;;;20.48;;
43994;SDS011;51687;52.160;5.298;2023-09-30T08:16:51;22.17;;;19.90;;
43994;SDS011;51687;52.160;5.298;2023-09-30T08:19:19;23.45;;;20.52;;
43994;SDS011;51687;52.160;5.298;2023-09-30T08:21:47;28.85;;;21.40;;
43994;SDS011;51687;52.160;5.298;2023-09-30T08:24:15;29.85;;;20.67;;
43994;SDS011;51687;52.160;5.298;2023-09-30T08:26:43;22.38;;;19.63;;
43994;SDS011;51687;52.160;5.298;2023-09-30T08:29:10;28.77;;;18.98;;
43994;SDS011;51687;52.160;5.298;2023-09-30T08:31:38;24.70;;;19.67;;
43994;SDS011;51687;52.160;5.298;2023-09-30T08:34:05;24.05;;;18.25;;
43994;SDS011;51687;52.160;5.298;2023-09-30T08:36:32;22.77;;;19.25;;
43994;SDS011;51687;52.160;5.298;2023-09-30T08:38:59;23.83;;;17.75;;
43994;SDS011;51687;52.160;5.298;2023-09-30T08:41:30;21.13;;;17.25;;
43994;SDS011;51687;52.160;5.298;2023-09-30T08:44:02;21.10;;;17.65;;
43994;SDS011;51687;52.160;5.298;2023-09-30T08:46:30;19.58;;;17.50;;
43994;SDS011;51687;52.160;5.298;2023-09-30T08:49:02;19.30;;;17.20;;
43994;SDS011;51687;52.160;5.298;2023-09-30T08:51:30;21.70;;;15.98;;
43994;SDS011;51687;52.160;5.298;2023-09-30T08:53:58;22.97;;;16.83;;
43994;SDS011;51687;52.160;5.298;2023-09-30T08:56:30;19.02;;;15.02;;
43994;SDS011;51687;52.160;5.298;2023-09-30T08:59:01;18.30;;;15.27;;
43994;SDS011;51687;52.160;5.298;2023-09-30T09:01:29;20.95;;;16.17;;
43994;SDS011;51687;52.160;5.298;2023-09-30T09:03:57;16.08;;;14.38;;
43994;SDS011;51687;52.160;5.298;2023-09-30T09:06:24;30.27;;;17.88;;
43994;SDS011;51687;52.160;5.298;2023-09-30T09:08:53;17.48;;;14.57;;
43994;SDS011;51687;52.160;5.298;2023-09-30T09:11:20;19.63;;;14.70;;
43994;SDS011;51687;52.160;5.298;2023-09-30T09:13:48;14.38;;;10.80;;
43994;SDS011;51687;52.160;5.298;2023-09-30T09:16:19;11.40;;;9.52;;
43994;SDS011;51687;52.160;5.298;2023-09-30T09:18:46;22.48;;;9.82;;
43994;SDS011;51687;52.160;5.298;2023-09-30T09:21:15;15.25;;;11.52;;
43994;SDS011;51687;52.160;5.298;2023-09-30T09:23:46;16.13;;;9.38;;
43994;SDS011;51687;52.160;5.298;2023-09-30T09:26:26;17.90;;;10.35;;
43994;SDS011;51687;52.160;5.298;2023-09-30T09:28:57;15.73;;;10.23;;
43994;SDS011;51687;52.160;5.298;2023-09-30T09:31:26;12.25;;;9.32;;
43994;SDS011;51687;52.160;5.298;2023-09-30T09:33:54;10.70;;;9.57;;
43994;SDS011;51687;52.160;5.298;2023-09-30T09:36:21;11.57;;;9.65;;
43994;SDS011;51687;52.160;5.298;2023-09-30T09:39:04;19.48;;;10.90;;
43994;SDS011;51687;52.160;5.298;2023-09-30T09:41:31;15.10;;;10.65;;
43994;SDS011;51687;52.160;5.298;2023-09-30T09:43:58;13.77;;;9.73;;
43994;SDS011;51687;52.160;5.298;2023-09-30T09:46:25;17.77;;;9.73;;
43994;SDS011;51687;52.160;5.298;2023-09-30T09:51:23;14.85;;;9.45;;
43994;SDS011;51687;52.160;5.298;2023-09-30T09:53:51;15.00;;;8.73;;
43994;SDS011;51687;52.160;5.298;2023-09-30T09:56:18;13.88;;;8.20;;
43994;SDS011;51687;52.160;5.298;2023-09-30T09:58:46;13.68;;;7.68;;
43994;SDS011;51687;52.160;5.298;2023-09-30T10:01:14;11.55;;;7.90;;
43994;SDS011;51687;52.160;5.298;2023-09-30T10:03:41;10.77;;;7.55;;
43994;SDS011;51687;52.160;5.298;2023-09-30T10:06:09;11.75;;;6.78;;
43994;SDS011;51687;52.160;5.298;2023-09-30T10:08:37;13.95;;;6.65;;
43994;SDS011;51687;52.160;5.298;2023-09-30T10:11:06;13.98;;;7.75;;
43994;SDS011;51687;52.160;5.298;2023-09-30T10:13:55;14.50;;;7.72;;
43994;SDS011;51687;52.160;5.298;2023-09-30T10:19:11;14.77;;;7.35;;
43994;SDS011;51687;52.160;5.298;2023-09-30T10:21:40;9.93;;;6.53;;
43994;SDS011;51687;52.160;5.298;2023-09-30T10:24:46;9.13;;;5.90;;
43994;SDS011;51687;52.160;5.298;2023-09-30T10:35:18;13.23;;;5.22;;
43994;SDS011;51687;52.160;5.298;2023-09-30T10:37:46;8.65;;;4.80;;
43994;SDS011;51687;52.160;5.298;2023-09-30T10:40:26;10.98;;;5.28;;
43994;SDS011;51687;52.160;5.298;2023-09-30T10:42:54;12.35;;;5.57;;
43994;SDS011;51687;52.160;5.298;2023-09-30T10:51:01;10.70;;;5.60;;
43994;SDS011;51687;52.160;5.298;2023-09-30T10:53:41;6.70;;;3.83;;
43994;SDS011;51687;52.160;5.298;2023-09-30T10:56:08;11.45;;;3.85;;
43994;SDS011;51687;52.160;5.298;2023-09-30T10:58:53;8.73;;;4.55;;
43994;SDS011;51687;52.160;5.298;2023-09-30T11:01:22;8.13;;;3.63;;
43994;SDS011;51687;52.160;5.298;2023-09-30T11:03:50;8.25;;;4.18;;
43994;SDS011;51687;52.160;5.298;2023-09-30T11:08:53;6.35;;;2.80;;
43994;SDS011;51687;52.160;5.298;2023-09-30T11:11:31;7.53;;;3.35;;
43994;SDS011;51687;52.160;5.298;2023-09-30T11:13:59;6.28;;;2.97;;
43994;SDS011;51687;52.160;5.298;2023-09-30T11:16:26;8.50;;;2.85;;
43994;SDS011;51687;52.160;5.298;2023-09-30T11:18:54;10.90;;;2.63;;
43994;SDS011;51687;52.160;5.298;2023-09-30T11:21:21;9.25;;;2.65;;
43994;SDS011;51687;52.160;5.298;2023-09-30T11:23:48;6.68;;;2.80;;
43994;SDS011;51687;52.160;5.298;2023-09-30T11:26:15;6.95;;;3.13;;
43994;SDS011;51687;52.160;5.298;2023-09-30T11:28:42;9.07;;;2.55;;
43994;SDS011;51687;52.160;5.298;2023-09-30T11:33:53;7.35;;;2.55;;
43994;SDS011;51687;52.160;5.298;2023-09-30T11:36:22;5.40;;;2.80;;
43994;SDS011;51687;52.160;5.298;2023-09-30T11:38:52;7.15;;;2.55;;
43994;SDS011;51687;52.160;5.298;2023-09-30T11:41:31;6.35;;;2.13;;
43994;SDS011;51687;52.160;5.298;2023-09-30T11:44:06;5.70;;;2.55;;
43994;SDS011;51687;52.160;5.298;2023-09-30T11:46:54;6.28;;;3.17;;
43994;SDS011;51687;52.160;5.298;2023-09-30T11:49:35;8.35;;;2.85;;
43994;SDS011;51687;52.160;5.298;2023-09-30T11:52:07;8.02;;;2.67;;
43994;SDS011;51687;52.160;5.298;2023-09-30T11:54:36;6.25;;;2.40;;
43994;SDS011;51687;52.160;5.298;2023-09-30T11:57:14;10.70;;;2.90;;
43994;SDS011;51687;52.160;5.298;2023-09-30T11:59:43;6.07;;;2.75;;
43994;SDS011;51687;52.160;5.298;2023-09-30T12:02:13;7.97;;;2.90;;
43994;SDS011;51687;52.160;5.298;2023-09-30T12:04:42;7.15;;;2.70;;
43994;SDS011;51687;52.160;5.298;2023-09-30T12:07:11;7.82;;;2.85;;
43994;SDS011;51687;52.160;5.298;2023-09-30T12:09:38;5.65;;;2.22;;
43994;SDS011;51687;52.160;5.298;2023-09-30T12:12:06;10.05;;;3.05;;
43994;SDS011;51687;52.160;5.298;2023-09-30T12:14:38;6.85;;;2.88;;
43994;SDS011;51687;52.160;5.298;2023-09-30T12:17:05;6.22;;;2.72;;
43994;SDS011;51687;52.160;5.298;2023-09-30T12:19:37;6.13;;;3.17;;
43994;SDS011;51687;52.160;5.298;2023-09-30T12:22:04;10.32;;;2.97;;
43994;SDS011;51687;52.160;5.298;2023-09-30T12:24:30;8.30;;;3.20;;
43994;SDS011;51687;52.160;5.298;2023-09-30T12:26:57;7.40;;;2.97;;
43994;SDS011;51687;52.160;5.298;2023-09-30T12:29:24;8.75;;;2.78;;
43994;SDS011;51687;52.160;5.298;2023-09-30T12:31:51;5.20;;;2.40;;
43994;SDS011;51687;52.160;5.298;2023-09-30T12:34:20;7.85;;;3.33;;
43994;SDS011;51687;52.160;5.298;2023-09-30T12:36:58;8.90;;;3.70;;
43994;SDS011;51687;52.160;5.298;2023-09-30T12:39:25;6.68;;;3.08;;
43994;SDS011;51687;52.160;5.298;2023-09-30T12:41:56;6.55;;;2.88;;
43994;SDS011;51687;52.160;5.298;2023-09-30T12:44:23;7.53;;;3.25;;
43994;SDS011;51687;52.160;5.298;2023-09-30T12:46:50;9.32;;;3.40;;
43994;SDS011;51687;52.160;5.298;2023-09-30T12:49:17;6.45;;;2.97;;
43994;SDS011;51687;52.160;5.298;2023-09-30T12:51:45;6.00;;;2.72;;
43994;SDS011;51687;52.160;5.298;2023-09-30T12:54:12;10.27;;;3.20;;
43994;SDS011;51687;52.160;5.298;2023-09-30T12:56:41;8.13;;;3.50;;
43994;SDS011;51687;52.160;5.298;2023-09-30T12:59:08;11.15;;;2.97;;
43994;SDS011;51687;52.160;5.298;2023-09-30T13:01:34;11.90;;;2.78;;
43994;SDS011;51687;52.160;5.298;2023-09-30T13:04:02;13.88;;;3.25;;
43994;SDS011;51687;52.160;5.298;2023-09-30T13:06:29;8.18;;;2.97;;
43994;SDS011;51687;52.160;5.298;2023-09-30T13:08:59;8.52;;;3.03;;
43994;SDS011;51687;52.160;5.298;2023-09-30T13:11:26;9.87;;;3.33;;
43994;SDS011;51687;52.160;5.298;2023-09-30T13:13:53;10.00;;;3.08;;
43994;SDS011;51687;52.160;5.298;2023-09-30T13:16:20;6.13;;;2.85;;
43994;SDS011;51687;52.160;5.298;2023-09-30T13:18:48;6.53;;;3.08;;
43994;SDS011;51687;52.160;5.298;2023-09-30T13:21:16;9.60;;;2.90;;
43994;SDS011;51687;52.160;5.298;2023-09-30T13:23:43;6.97;;;2.60;;
43994;SDS011;51687;52.160;5.298;2023-09-30T13:26:09;10.45;;;3.00;;
43994;SDS011;51687;52.160;5.298;2023-09-30T13:28:36;9.60;;;3.00;;
43994;SDS011;51687;52.160;5.298;2023-09-30T13:31:03;9.68;;;2.67;;
43994;SDS011;51687;52.160;5.298;2023-09-30T13:33:30;8.20;;;3.08;;
43994;SDS011;51687;52.160;5.298;2023-09-30T13:35:56;5.50;;;2.63;;
43994;SDS011;51687;52.160;5.298;2023-09-30T13:38:24;10.43;;;2.75;;
43994;SDS011;51687;52.160;5.298;2023-09-30T13:40:51;6.95;;;2.85;;
43994;SDS011;51687;52.160;5.298;2023-09-30T13:43:18;9.25;;;3.70;;
43994;SDS011;51687;52.160;5.298;2023-09-30T13:45:45;6.07;;;2.55;;
43994;SDS011;51687;52.160;5.298;2023-09-30T13:48:12;8.77;;;2.65;;
43994;SDS011;51687;52.160;5.298;2023-09-30T13:50:39;11.88;;;3.22;;
43994;SDS011;51687;52.160;5.298;2023-09-30T13:53:06;7.93;;;2.80;;
43994;SDS011;51687;52.160;5.298;2023-09-30T13:55:33;7.00;;;3.22;;
43994;SDS011;51687;52.160;5.298;2023-09-30T13:58:04;13.23;;;3.80;;
43994;SDS011;51687;52.160;5.298;2023-09-30T14:00:31;7.60;;;3.35;;
43994;SDS011;51687;52.160;5.298;2023-09-30T14:02:59;10.18;;;3.55;;
43994;SDS011;51687;52.160;5.298;2023-09-30T14:05:26;10.98;;;3.10;;
43994;SDS011;51687;52.160;5.298;2023-09-30T14:07:53;12.65;;;3.20;;
43994;SDS011;51687;52.160;5.298;2023-09-30T14:10:20;9.32;;;3.58;;
43994;SDS011;51687;52.160;5.298;2023-09-30T14:12:47;10.20;;;3.28;;
43994;SDS011;51687;52.160;5.298;2023-09-30T14:15:14;12.80;;;3.45;;
43994;SDS011;51687;52.160;5.298;2023-09-30T14:17:47;10.57;;;3.40;;
43994;SDS011;51687;52.160;5.298;2023-09-30T14:20:14;11.95;;;3.58;;
43994;SDS011;51687;52.160;5.298;2023-09-30T14:22:41;12.90;;;3.35;;
43994;SDS011;51687;52.160;5.298;2023-09-30T14:25:08;13.43;;;3.03;;
43994;SDS011;51687;52.160;5.298;2023-09-30T14:27:35;10.93;;;2.92;;
43994;SDS011;51687;52.160;5.298;2023-09-30T14:30:02;6.40;;;2.70;;
43994;SDS011;51687;52.160;5.298;2023-09-30T14:32:34;9.85;;;3.38;;
43994;SDS011;51687;52.160;5.298;2023-09-30T14:35:01;11.32;;;3.53;;
43994;SDS011;51687;52.160;5.298;2023-09-30T14:37:28;10.02;;;2.92;;
43994;SDS011;51687;52.160;5.298;2023-09-30T14:39:56;11.13;;;4.20;;
43994;SDS011;51687;52.160;5.298;2023-09-30T14:42:22;7.47;;;3.17;;
43994;SDS011;51687;52.160;5.298;2023-09-30T14:44:49;8.98;;;2.92;;
43994;SDS011;51687;52.160;5.298;2023-09-30T14:47:16;7.32;;;3.00;;
43994;SDS011;51687;52.160;5.298;2023-09-30T14:49:43;8.50;;;2.63;;
43994;SDS011;51687;52.160;5.298;2023-09-30T14:52:09;7.78;;;2.97;;
43994;SDS011;51687;52.160;5.298;2023-09-30T14:54:37;9.98;;;3.53;;
43994;SDS011;51687;52.160;5.298;2023-09-30T14:57:04;10.38;;;3.15;;
43994;SDS011;51687;52.160;5.298;2023-09-30T14:59:32;7.47;;;2.85;;
43994;SDS011;51687;52.160;5.298;2023-09-30T15:02:00;9.95;;;2.92;;
43994;SDS011;51687;52.160;5.298;2023-09-30T15:04:27;9.43;;;3.30;;
43994;SDS011;51687;52.160;5.298;2023-09-30T15:06:54;10.65;;;3.47;;
43994;SDS011;51687;52.160;5.298;2023-09-30T15:09:21;7.28;;;2.75;;
43994;SDS011;51687;52.160;5.298;2023-09-30T15:11:49;8.88;;;3.10;;
43994;SDS011;51687;52.160;5.298;2023-09-30T15:14:15;7.68;;;3.35;;
43994;SDS011;51687;52.160;5.298;2023-09-30T15:16:42;12.48;;;3.35;;